Time;durP1;ratioP1;P1;durP2;ratioP2;P2;SDS_P1;SDS_P2;PMS_P1;PMS_P2;Temp;Humidity;BMP_temperature;BMP_pressure;BME280_temperature;BME280_humidity;BME280_pressure;Samples;Min_cycle;Max_cycle;Signal;HPM_P1;HPM_P2
2023/12/03 00:02:11;;;;;;;;;;;;;;;0.45;77.41;99251.03;5095883;28;19923;-74
2023/12/03 00:04:40;;;;;;;;;;;;;;;0.44;78.25;99254.34;5095891;28;19969;-73
2023/12/03 00:07:08;;;;;;;;;;;;;;;0.44;78.38;99254.34;5096202;28;19919;-73
2023/12/03 00:09:38;;;;;;;;;;;;;;;0.42;78.29;99258.47;5095866;28;20445;-73
2023/12/03 00:12:07;;;;;;;;;;;;;;;0.39;78.02;99245.81;5095899;28;19926;-73
2023/12/03 00:14:37;;;;;;;;;;;;;;;0.35;78.41;99249.91;5095963;28;20362;-73
2023/12/03 00:17:06;;;;;;;;;;;;;;;0.33;77.95;99253.16;5096241;28;19920;-73
2023/12/03 00:19:34;;;;;;;;;;;;;;;0.32;78.72;99258.97;5096140;28;20305;-73
2023/12/03 00:22:03;;;;;;;;;;;;;;;0.33;78.34;99258.19;5095914;28;19927;-73
2023/12/03 00:24:31;;;;;;;;;;;;;;;0.31;78.41;99268.16;5096145;28;19923;-73
2023/12/03 00:27:01;;;;;;;;;;;;;;;0.30;77.98;99270.63;5095795;28;19920;-73
2023/12/03 00:29:29;;;;;;;;;;;;;;;0.26;78.39;99274.69;5094259;28;20006;-72
2023/12/03 00:31:59;;;;;;;;;;;;;;;0.26;78.10;99281.38;5095726;28;19920;-72
2023/12/03 00:34:28;;;;;;;;;;;;;;;0.26;78.02;99293.91;5096296;28;19919;-73
2023/12/03 00:36:56;;;;;;;;;;;;;;;0.24;77.51;99295.53;5095197;28;20003;-72
2023/12/03 00:39:25;;;;;;;;;;;;;;;0.22;78.37;99307.13;5094249;28;19924;-73
2023/12/03 00:41:53;;;;;;;;;;;;;;;0.20;78.03;99318.78;5094081;28;19919;-73
2023/12/03 00:44:22;;;;;;;;;;;;;;;0.17;78.10;99321.19;5110900;28;19927;-73
2023/12/03 00:46:50;;;;;;;;;;;;;;;0.16;77.75;99314.47;5094928;28;19924;-73
2023/12/03 00:49:20;;;;;;;;;;;;;;;0.14;78.00;99328.63;5095027;28;19920;-73
2023/12/03 00:51:49;;;;;;;;;;;;;;;0.14;77.55;99338.66;5095427;28;20361;-72
2023/12/03 00:54:17;;;;;;;;;;;;;;;0.12;77.37;99345.28;5076932;28;20362;-72
2023/12/03 00:56:45;;;;;;;;;;;;;;;0.10;77.93;99336.84;5094881;28;19977;-74
2023/12/03 00:59:14;;;;;;;;;;;;;;;0.08;77.35;99335.91;5095044;28;19927;-74
2023/12/03 01:01:43;;;;;;;;;;;;;;;0.04;78.07;99342.50;5093690;28;20389;-74
2023/12/03 01:04:11;;;;;;;;;;;;;;;0.00;78.11;99358.25;5095134;28;19926;-74
2023/12/03 01:06:41;;;;;;;;;;;;;;;0.00;77.76;99376.63;5095033;28;19942;-72
2023/12/03 01:09:10;;;;;;;;;;;;;;;0.00;78.23;99380.81;5094086;28;19919;-72
2023/12/03 01:11:40;;;;;;;;;;;;;;;-0.02;78.11;99382.38;5094860;28;19920;-72
2023/12/03 01:14:08;;;;;;;;;;;;;;;-0.05;78.11;99378.13;5094607;28;19920;-72
2023/12/03 01:16:37;;;;;;;;;;;;;;;-0.06;77.95;99385.59;5094554;28;19969;-73
2023/12/03 01:19:05;;;;;;;;;;;;;;;-0.06;77.79;99381.44;5094783;28;19920;-72
2023/12/03 01:21:34;;;;;;;;;;;;;;;-0.05;78.30;99397.34;5095136;28;19969;-72
2023/12/03 01:24:04;;;;;;;;;;;;;;;-0.09;78.14;99391.34;5094858;28;19920;-73
2023/12/03 01:26:34;;;;;;;;;;;;;;;-0.13;77.69;99383.66;5094900;28;19975;-73
2023/12/03 01:29:02;;;;;;;;;;;;;;;-0.16;78.29;99381.03;5094682;28;19920;-73
2023/12/03 01:31:31;;;;;;;;;;;;;;;-0.17;78.32;99384.38;5094348;28;19926;-74
2023/12/03 01:33:59;;;;;;;;;;;;;;;-0.22;78.08;99383.34;5093107;28;19920;-73
2023/12/03 01:36:29;;;;;;;;;;;;;;;-0.26;78.32;99394.88;5094319;28;19919;-74
2023/12/03 01:38:57;;;;;;;;;;;;;;;-0.24;78.23;99405.00;5094637;28;19919;-73
2023/12/03 01:41:27;;;;;;;;;;;;;;;-0.25;78.08;99403.28;5094730;28;19923;-73
2023/12/03 01:43:57;;;;;;;;;;;;;;;-0.27;78.46;99407.38;5094231;28;19981;-73
2023/12/03 01:46:28;;;;;;;;;;;;;;;-0.28;78.42;99416.53;5094969;28;20369;-73
2023/12/03 01:48:56;;;;;;;;;;;;;;;-0.30;78.83;99424.81;5092900;28;19926;-73
2023/12/03 01:51:26;;;;;;;;;;;;;;;-0.31;78.43;99428.13;5094019;28;19927;-73
2023/12/03 01:53:56;;;;;;;;;;;;;;;-0.33;79.04;99428.06;5094117;28;19927;-72
2023/12/03 01:56:24;;;;;;;;;;;;;;;-0.33;78.91;99435.56;5094168;28;19927;-72
2023/12/03 01:58:55;;;;;;;;;;;;;;;-0.35;78.96;99437.16;5093964;28;19920;-72
2023/12/03 02:01:24;;;;;;;;;;;;;;;-0.36;78.72;99435.44;5094421;28;19973;-73
2023/12/03 02:03:53;;;;;;;;;;;;;;;-0.37;78.41;99448.78;5094317;28;19942;-73
2023/12/03 02:06:22;;;;;;;;;;;;;;;-0.33;78.85;99460.63;5093939;28;19923;-73
2023/12/03 02:08:50;;;;;;;;;;;;;;;-0.31;78.32;99453.19;5094474;28;19978;-73
2023/12/03 02:11:21;;;;;;;;;;;;;;;-0.30;78.40;99440.72;5092962;28;19942;-73
2023/12/03 02:13:51;;;;;;;;;;;;;;;-0.31;78.62;99448.19;5093938;28;19920;-73
2023/12/03 02:16:21;;;;;;;;;;;;;;;-0.31;78.19;99455.72;5093081;28;20320;-72
2023/12/03 02:18:50;;;;;;;;;;;;;;;-0.32;78.57;99451.47;5092700;28;19926;-73
2023/12/03 02:21:19;;;;;;;;;;;;;;;-0.34;78.44;99463.97;5093523;28;19920;-73
2023/12/03 02:23:49;;;;;;;;;;;;;;;-0.34;78.56;99453.94;5111424;28;20305;-73
2023/12/03 02:26:18;;;;;;;;;;;;;;;-0.36;77.87;99458.00;5093825;28;19920;-73
2023/12/03 02:28:47;;;;;;;;;;;;;;;-0.36;78.19;99460.50;5092815;28;20290;-72
2023/12/03 02:31:16;;;;;;;;;;;;;;;-0.38;78.04;99472.13;5093980;28;19924;-72
2023/12/03 02:33:48;;;;;;;;;;;;;;;-0.40;78.07;99478.75;5094169;28;19927;-72
2023/12/03 02:36:17;;;;;;;;;;;;;;;-0.38;78.56;99482.16;5094072;28;19965;-73
2023/12/03 02:38:46;;;;;;;;;;;;;;;-0.43;78.53;99488.66;5093997;28;19982;-73
2023/12/03 02:41:16;;;;;;;;;;;;;;;-0.46;78.12;99478.53;5092398;28;19924;-73
2023/12/03 02:43:45;;;;;;;;;;;;;;;-0.46;78.38;99491.06;5093964;28;19920;-73
2023/12/03 02:46:13;;;;;;;;;;;;;;;-0.48;78.66;99495.13;5092982;28;19985;-73
2023/12/03 02:48:42;;;;;;;;;;;;;;;-0.48;78.97;99497.63;5093583;28;19920;-73
2023/12/03 02:51:10;;;;;;;;;;;;;;;-0.52;78.50;99498.31;5093833;28;19965;-73
2023/12/03 02:53:39;;;;;;;;;;;;;;;-0.49;78.83;99505.97;5093635;28;20378;-73
2023/12/03 02:56:08;;;;;;;;;;;;;;;-0.50;78.73;99500.88;5093860;28;19920;-72
2023/12/03 02:58:38;;;;;;;;;;;;;;;-0.52;78.98;99513.34;5093777;28;20027;-72
2023/12/03 03:01:07;;;;;;;;;;;;;;;-0.54;78.31;99524.97;5092321;28;19930;-73
2023/12/03 03:03:35;;;;;;;;;;;;;;;-0.53;78.59;99535.84;5096338;28;20389;-73
2023/12/03 03:06:04;;;;;;;;;;;;;;;-0.53;78.59;99541.72;5113212;28;19920;-73
2023/12/03 03:08:33;;;;;;;;;;;;;;;-0.53;79.33;99541.72;5097379;28;19978;-73
2023/12/03 03:11:02;;;;;;;;;;;;;;;-0.44;78.78;99546.25;5097626;28;20025;-72
2023/12/03 03:13:31;;;;;;;;;;;;;;;-0.41;78.74;99554.75;5096861;28;19963;-72
2023/12/03 03:16:01;;;;;;;;;;;;;;;-0.34;79.00;99554.19;5113013;28;19926;-73
2023/12/03 03:18:29;;;;;;;;;;;;;;;-0.35;79.02;99562.50;5079294;28;20383;-73
2023/12/03 03:21:02;;;;;;;;;;;;;;;-0.37;79.30;99566.59;5096982;28;19927;-72
2023/12/03 03:23:30;;;;;;;;;;;;;;;-0.34;78.75;99568.38;5097113;28;19924;-72
2023/12/03 03:25:59;;;;;;;;;;;;;;;-0.32;79.15;99567.66;5095488;28;19927;-73
2023/12/03 03:28:27;;;;;;;;;;;;;;;-0.36;78.95;99565.78;5095560;28;19924;-72
2023/12/03 03:30:58;;;;;;;;;;;;;;;-0.47;78.86;99572.03;5096942;28;19920;-72
2023/12/03 03:33:28;;;;;;;;;;;;;;;-0.49;79.12;99571.13;5096402;28;19924;-73
2023/12/03 03:35:57;;;;;;;;;;;;;;;-0.50;79.55;99576.91;5097185;28;20019;-72
2023/12/03 03:38:26;;;;;;;;;;;;;;;-0.48;79.28;99582.84;5095646;28;19920;-72
2023/12/03 03:40:54;;;;;;;;;;;;;;;-0.42;79.55;99588.13;5095138;28;20391;-72
2023/12/03 03:43:23;;;;;;;;;;;;;;;-0.41;80.11;99587.34;5096951;28;19920;-73
2023/12/03 03:45:54;;;;;;;;;;;;;;;-0.38;79.69;99599.97;5096749;28;19920;-73
2023/12/03 03:48:23;;;;;;;;;;;;;;;-0.35;79.34;99595.09;5096630;28;19927;-72
2023/12/03 03:50:53;;;;;;;;;;;;;;;-0.38;79.60;99601.63;5096278;28;19924;-72
2023/12/03 03:53:22;;;;;;;;;;;;;;;-0.38;79.83;99596.59;5095185;28;19920;-73
2023/12/03 03:55:50;;;;;;;;;;;;;;;-0.37;79.69;99605.84;5096246;28;19920;-72
2023/12/03 03:58:19;;;;;;;;;;;;;;;-0.38;79.29;99612.50;5096286;28;19920;-73
2023/12/03 04:00:51;;;;;;;;;;;;;;;-0.43;79.13;99625.66;5095125;28;19920;-72
2023/12/03 04:03:19;;;;;;;;;;;;;;;-0.47;78.93;99623.81;5095805;28;19920;-72
2023/12/03 04:05:48;;;;;;;;;;;;;;;-0.49;78.82;99633.78;5095928;28;19977;-72
2023/12/03 04:08:18;;;;;;;;;;;;;;;-0.46;79.04;99638.94;5096506;28;19970;-72
2023/12/03 04:10:46;;;;;;;;;;;;;;;-0.42;78.43;99630.72;5095921;28;19924;-72
2023/12/03 04:13:15;;;;;;;;;;;;;;;-0.44;78.38;99637.34;5095496;28;19927;-72
2023/12/03 04:15:43;;;;;;;;;;;;;;;-0.52;77.96;99638.66;5095957;28;20378;-72
2023/12/03 04:18:14;;;;;;;;;;;;;;;-0.52;77.92;99648.69;5096088;28;19920;-72
2023/12/03 04:20:43;;;;;;;;;;;;;;;-0.49;77.85;99647.94;5095544;28;19966;-73
2023/12/03 04:23:12;;;;;;;;;;;;;;;-0.51;77.83;99649.53;5077597;28;19989;-72
2023/12/03 04:25:42;;;;;;;;;;;;;;;-0.51;78.38;99647.91;5095795;28;19919;-72
2023/12/03 04:28:11;;;;;;;;;;;;;;;-0.50;78.41;99656.25;5095703;28;19920;-72
2023/12/03 04:30:39;;;;;;;;;;;;;;;-0.55;77.66;99663.56;5096118;28;20355;-72
2023/12/03 04:33:08;;;;;;;;;;;;;;;-0.56;77.75;99664.38;5095749;28;19977;-72
2023/12/03 04:35:36;;;;;;;;;;;;;;;-0.52;77.71;99665.34;5094263;28;19927;-72
2023/12/03 04:38:05;;;;;;;;;;;;;;;-0.53;77.40;99664.53;5094837;28;19927;-73
2023/12/03 04:40:34;;;;;;;;;;;;;;;-0.53;77.84;99664.53;5093864;28;19920;-73
2023/12/03 04:43:13;;;;;;;;;;;;;;;-0.59;77.32;99665.88;5094409;28;19927;-72
2023/12/03 04:45:42;;;;;;;;;;;;;;;-0.59;77.57;99674.28;5095096;28;20366;-72
2023/12/03 04:48:10;;;;;;;;;;;;;;;-0.66;77.63;99672.28;5095748;28;19981;-72
2023/12/03 04:50:39;;;;;;;;;;;;;;;-0.65;77.17;99679.03;5095377;28;19927;-71
2023/12/03 04:53:08;;;;;;;;;;;;;;;-0.67;77.07;99678.94;5095376;28;19920;-72
2023/12/03 04:55:36;;;;;;;;;;;;;;;-0.69;77.05;99687.19;5095193;28;19967;-72
2023/12/03 04:58:05;;;;;;;;;;;;;;;-0.76;77.09;99692.72;5095059;28;19961;-72
2023/12/03 05:00:35;;;;;;;;;;;;;;;-0.79;77.25;99687.56;5095037;28;19919;-72
2023/12/03 05:03:04;;;;;;;;;;;;;;;-0.78;77.18;99696.81;5094754;28;20296;-72
2023/12/03 05:05:33;;;;;;;;;;;;;;;-0.77;77.22;99691.03;5094719;28;19948;-72
2023/12/03 05:08:01;;;;;;;;;;;;;;;-0.80;77.22;99705.91;5095659;28;20358;-72
2023/12/03 05:10:30;;;;;;;;;;;;;;;-0.85;77.22;99710.72;5095008;28;20373;-72
2023/12/03 05:12:58;;;;;;;;;;;;;;;-0.92;77.04;99716.25;5093802;28;19985;-72
2023/12/03 05:15:27;;;;;;;;;;;;;;;-0.93;77.27;99713.66;5094635;28;19927;-72
2023/12/03 05:17:57;;;;;;;;;;;;;;;-0.98;77.40;99718.47;5094947;28;20014;-73
2023/12/03 05:20:26;;;;;;;;;;;;;;;-1.02;77.57;99725.78;5076837;28;19920;-72
2023/12/03 05:22:54;;;;;;;;;;;;;;;-1.00;77.67;99729.19;5094794;28;19973;-72
2023/12/03 05:25:23;;;;;;;;;;;;;;;-1.05;77.23;99731.50;5094580;28;19927;-71
2023/12/03 05:27:51;;;;;;;;;;;;;;;-1.03;77.64;99736.59;5094708;28;19955;-72
2023/12/03 05:30:20;;;;;;;;;;;;;;;-1.08;77.40;99743.03;5094713;28;19942;-72
2023/12/03 05:32:48;;;;;;;;;;;;;;;-1.18;77.01;99743.41;5094748;28;19928;-71
2023/12/03 05:35:18;;;;;;;;;;;;;;;-1.20;77.57;99749.97;5094229;28;20377;-72
2023/12/03 05:37:47;;;;;;;;;;;;;;;-1.21;77.61;99761.63;5094556;28;19920;-72
2023/12/03 05:40:15;;;;;;;;;;;;;;;-1.23;77.20;99764.84;5094893;28;19922;-72
2023/12/03 05:42:44;;;;;;;;;;;;;;;-1.26;77.27;99762.19;5094844;28;19920;-72
2023/12/03 05:45:13;;;;;;;;;;;;;;;-1.26;77.37;99767.19;5094541;28;19992;-72
2023/12/03 05:47:42;;;;;;;;;;;;;;;-1.22;77.45;99779.09;5094455;28;19919;-72
2023/12/03 05:50:10;;;;;;;;;;;;;;;-1.26;77.59;99778.06;5094427;28;19961;-72
2023/12/03 05:52:42;;;;;;;;;;;;;;;-1.24;77.27;99780.63;5094399;28;19920;-72
2023/12/03 05:55:10;;;;;;;;;;;;;;;-1.26;77.64;99777.22;5094730;28;19942;-72
2023/12/03 05:57:39;;;;;;;;;;;;;;;-1.27;77.60;99781.34;5093939;28;19924;-72
2023/12/03 06:00:08;;;;;;;;;;;;;;;-1.28;77.60;99781.28;5094365;28;19920;-72
2023/12/03 06:02:37;;;;;;;;;;;;;;;-1.28;77.81;99791.31;5094025;28;20396;-72
2023/12/03 06:05:06;;;;;;;;;;;;;;;-1.32;77.92;99791.94;5094327;28;19955;-72
2023/12/03 06:07:35;;;;;;;;;;;;;;;-1.31;77.57;99801.16;5093946;28;19920;-72
2023/12/03 06:10:06;;;;;;;;;;;;;;;-1.32;77.93;99801.97;5093919;28;19920;-72
2023/12/03 06:12:35;;;;;;;;;;;;;;;-1.36;78.03;99801.81;5093181;28;19920;-72
2023/12/03 06:15:04;;;;;;;;;;;;;;;-1.40;77.96;99809.97;5092668;28;20366;-72
2023/12/03 06:17:32;;;;;;;;;;;;;;;-1.43;78.36;99804.81;5093792;28;19920;-72
2023/12/03 06:20:01;;;;;;;;;;;;;;;-1.43;78.45;99803.94;5094430;28;20336;-72
2023/12/03 06:22:30;;;;;;;;;;;;;;;-1.44;78.54;99798.06;5093829;28;19924;-72
2023/12/03 06:24:58;;;;;;;;;;;;;;;-1.49;78.44;99812.00;5093737;28;19928;-72
2023/12/03 06:27:29;;;;;;;;;;;;;;;-1.53;78.70;99816.78;5093953;28;19952;-72
2023/12/03 06:29:58;;;;;;;;;;;;;;;-1.55;78.59;99818.34;5092824;28;20063;-72
2023/12/03 06:32:27;;;;;;;;;;;;;;;-1.55;78.73;99829.22;5094185;28;19927;-72
2023/12/03 06:34:55;;;;;;;;;;;;;;;-1.56;79.08;99822.50;5092560;28;19923;-72
2023/12/03 06:37:24;;;;;;;;;;;;;;;-1.56;79.21;99827.50;5094729;28;20267;-72
2023/12/03 06:39:52;;;;;;;;;;;;;;;-1.54;78.95;99835.09;5097751;28;19927;-72
2023/12/03 06:42:21;;;;;;;;;;;;;;;-1.51;79.05;99836.09;5097924;28;19920;-72
2023/12/03 06:44:54;;;;;;;;;;;;;;;-1.47;78.97;99837.97;5097897;28;19935;-72
2023/12/03 06:47:23;;;;;;;;;;;;;;;-1.43;78.81;99854.00;5097823;28;19973;-72
2023/12/03 06:49:52;;;;;;;;;;;;;;;-1.43;79.01;99864.00;5097567;28;19920;-72
2023/12/03 06:52:21;;;;;;;;;;;;;;;-1.39;79.07;99859.22;5097850;28;20015;-72
2023/12/03 06:54:49;;;;;;;;;;;;;;;-1.37;79.12;99865.16;5097086;28;19920;-73
2023/12/03 06:57:18;;;;;;;;;;;;;;;-1.38;79.05;99860.94;5097031;28;19973;-72
2023/12/03 06:59:46;;;;;;;;;;;;;;;-1.34;78.50;99863.63;5097302;28;19942;-72
2023/12/03 07:02:16;;;;;;;;;;;;;;;-1.26;78.89;99869.81;5096993;28;19920;-72
2023/12/03 07:04:45;;;;;;;;;;;;;;;-1.26;78.58;99872.34;5097384;28;20394;-73
2023/12/03 07:07:13;;;;;;;;;;;;;;;-1.26;78.82;99877.34;5097759;28;19927;-73
2023/12/03 07:09:42;;;;;;;;;;;;;;;-1.23;78.73;99872.50;5097497;28;19920;-73
2023/12/03 07:12:10;;;;;;;;;;;;;;;-1.21;79.01;99880.94;5079479;28;20018;-72
2023/12/03 07:14:39;;;;;;;;;;;;;;;-1.21;78.50;99880.94;5097225;28;19986;-73
2023/12/03 07:17:07;;;;;;;;;;;;;;;-1.25;78.32;99884.06;5096841;28;20353;-72
2023/12/03 07:19:37;;;;;;;;;;;;;;;-1.31;78.50;99894.63;5095927;28;20442;-72
2023/12/03 07:22:06;;;;;;;;;;;;;;;-1.32;78.34;99892.06;5096845;28;20006;-73
2023/12/03 07:24:34;;;;;;;;;;;;;;;-1.25;78.17;99909.09;5096667;28;19927;-73
2023/12/03 07:27:03;;;;;;;;;;;;;;;-1.25;78.36;99904.09;5095793;28;20011;-72
2023/12/03 07:29:31;;;;;;;;;;;;;;;-1.25;78.22;99914.13;5096744;28;19926;-73
2023/12/03 07:32:00;;;;;;;;;;;;;;;-1.20;78.16;99917.72;5112697;28;20274;-73
2023/12/03 07:34:28;;;;;;;;;;;;;;;-1.17;78.33;99918.69;5084308;28;19943;-73
2023/12/03 07:36:58;;;;;;;;;;;;;;;-1.10;78.31;99932.38;5076253;28;19959;-73
2023/12/03 07:39:27;;;;;;;;;;;;;;;-1.05;78.51;99928.44;5058489;28;19966;-73
2023/12/03 07:41:55;;;;;;;;;;;;;;;-1.02;78.22;99933.63;5076577;28;19920;-73
2023/12/03 07:44:24;;;;;;;;;;;;;;;-1.02;78.04;99936.13;5076545;28;20015;-73
2023/12/03 07:46:53;;;;;;;;;;;;;;;-1.05;77.84;99928.44;5075034;28;19928;-72
2023/12/03 07:49:22;;;;;;;;;;;;;;;-1.06;77.91;99946.78;5075861;28;20371;-73
2023/12/03 07:51:50;;;;;;;;;;;;;;;-1.05;77.66;99953.50;5076355;28;19974;-73
2023/12/03 07:54:20;;;;;;;;;;;;;;;-1.07;77.90;99950.06;5075912;28;20020;-73
2023/12/03 07:56:49;;;;;;;;;;;;;;;-1.09;77.40;99966.66;5075041;28;19974;-73
2023/12/03 07:59:18;;;;;;;;;;;;;;;-1.10;77.48;99970.78;5076476;28;19920;-73
2023/12/03 08:01:47;;;;;;;;;;;;;;;-1.06;77.63;99972.69;5075687;28;19920;-73
2023/12/03 08:04:16;;;;;;;;;;;;;;;-1.02;77.26;99968.66;5075867;28;19925;-72
2023/12/03 08:06:44;;;;;;;;;;;;;;;-1.03;77.18;99966.97;5075975;28;19989;-73
2023/12/03 08:09:13;;;;;;;;;;;;;;;-1.00;77.20;99974.63;5075964;28;19920;-73
2023/12/03 08:11:43;;;;;;;;;;;;;;;-0.99;76.99;99979.72;5076064;28;19920;-73
2023/12/03 08:14:11;;;;;;;;;;;;;;;-1.00;76.92;99977.13;5075931;28;19921;-72
2023/12/03 08:16:40;;;;;;;;;;;;;;;-1.04;76.93;99985.28;5075389;28;19971;-73
2023/12/03 08:19:09;;;;;;;;;;;;;;;-1.06;77.06;99981.84;5075454;28;19950;-73
2023/12/03 08:21:38;;;;;;;;;;;;;;;-1.10;76.61;99980.81;5074071;28;19924;-73
2023/12/03 08:24:07;;;;;;;;;;;;;;;-1.11;76.50;99976.59;5075748;28;19929;-73
2023/12/03 08:26:35;;;;;;;;;;;;;;;-1.11;76.79;99983.25;5075498;28;19924;-73
2023/12/03 08:29:05;;;;;;;;;;;;;;;-1.07;76.60;99982.59;5075790;28;20385;-73
2023/12/03 08:31:34;;;;;;;;;;;;;;;-1.02;76.59;99987.06;5075928;28;19926;-72
2023/12/03 08:34:02;;;;;;;;;;;;;;;-0.98;76.63;99983.94;5075755;28;19956;-73
2023/12/03 08:36:31;;;;;;;;;;;;;;;-0.92;76.65;99995.91;5075055;28;20015;-72
2023/12/03 08:39:01;;;;;;;;;;;;;;;-0.88;76.05;99998.63;5074304;28;19951;-72
2023/12/03 08:41:31;;;;;;;;;;;;;;;-0.84;76.20;100004.66;5075106;28;19921;-72
2023/12/03 08:43:59;;;;;;;;;;;;;;;-0.78;75.97;100004.94;5075013;28;19920;-72
2023/12/03 08:46:29;;;;;;;;;;;;;;;-0.73;75.81;100008.53;5075523;28;19927;-72
2023/12/03 08:48:58;;;;;;;;;;;;;;;-0.70;75.97;100009.53;5075251;28;19921;-72
2023/12/03 08:51:27;;;;;;;;;;;;;;;-0.62;75.51;100012.41;5074780;28;19956;-72
2023/12/03 08:53:56;;;;;;;;;;;;;;;-0.55;75.17;100016.94;5075143;28;19965;-72
2023/12/03 08:56:26;;;;;;;;;;;;;;;-0.53;75.36;100017.91;5074582;28;20427;-72
2023/12/03 08:58:55;;;;;;;;;;;;;;;-0.53;75.12;100032.94;5074711;28;20324;-72
2023/12/03 09:01:24;;;;;;;;;;;;;;;-0.52;75.30;100034.63;5072178;28;19927;-72
2023/12/03 09:03:54;;;;;;;;;;;;;;;-0.47;74.98;100030.72;5074689;28;20000;-72
2023/12/03 09:06:23;;;;;;;;;;;;;;;-0.38;74.75;100033.66;5074518;28;19924;-72
2023/12/03 09:08:52;;;;;;;;;;;;;;;-0.36;74.63;100037.09;5062829;28;19927;-72
2023/12/03 09:11:22;;;;;;;;;;;;;;;-0.30;74.42;100042.41;5054953;28;19928;-72
2023/12/03 09:13:50;;;;;;;;;;;;;;;-0.15;74.01;100043.13;5074374;28;20370;-71
2023/12/03 09:16:19;;;;;;;;;;;;;;;0.07;73.64;100044.13;5075167;28;20278;-71
2023/12/03 09:18:48;;;;;;;;;;;;;;;0.37;73.83;100055.56;5074095;28;20358;-73
2023/12/03 09:21:19;;;;;;;;;;;;;;;0.56;72.94;100053.94;5074646;28;19920;-73
2023/12/03 09:23:48;;;;;;;;;;;;;;;0.86;73.06;100051.06;5074554;28;19932;-73
2023/12/03 09:26:17;;;;;;;;;;;;;;;1.12;72.20;100053.91;5072591;28;19926;-74
2023/12/03 09:28:45;;;;;;;;;;;;;;;1.13;71.69;100049.72;5074530;28;19927;-74
2023/12/03 09:31:14;;;;;;;;;;;;;;;1.08;70.63;100054.56;5073155;28;19928;-76
2023/12/03 09:33:44;;;;;;;;;;;;;;;1.21;71.21;100060.97;5072912;28;19928;-76
2023/12/03 09:36:17;;;;;;;;;;;;;;;1.33;70.89;100061.47;5073183;28;19920;-75
2023/12/03 09:38:51;;;;;;;;;;;;;;;1.39;70.48;100063.41;5072978;28;20431;-75
2023/12/03 09:41:20;;;;;;;;;;;;;;;1.46;69.90;100071.28;5074297;28;19920;-77
2023/12/03 09:43:52;;;;;;;;;;;;;;;1.45;69.38;100064.50;5074286;28;20390;-77
2023/12/03 09:46:23;;;;;;;;;;;;;;;1.35;69.35;100065.78;5073069;28;19920;-77
2023/12/03 09:48:54;;;;;;;;;;;;;;;1.32;69.08;100068.16;5089832;28;19920;-77
2023/12/03 09:51:23;;;;;;;;;;;;;;;1.20;68.11;100074.34;5073333;28;19920;-80
2023/12/03 09:53:56;;;;;;;;;;;;;;;1.19;69.12;100076.00;5073984;28;19920;-80
2023/12/03 09:56:26;;;;;;;;;;;;;;;1.15;68.90;100079.16;5072972;28;20056;-79
2023/12/03 09:58:57;;;;;;;;;;;;;;;1.17;68.62;100072.56;5074325;28;19925;-81
2023/12/03 10:01:26;;;;;;;;;;;;;;;1.16;68.81;100085.91;5073916;28;19920;-82
2023/12/03 10:03:55;;;;;;;;;;;;;;;1.11;68.67;100079.81;5074369;28;20357;-82
2023/12/03 10:06:24;;;;;;;;;;;;;;;1.09;68.36;100083.94;5073656;28;20362;-81
2023/12/03 10:08:54;;;;;;;;;;;;;;;0.98;68.48;100085.13;5089725;28;19920;-81
2023/12/03 10:11:26;;;;;;;;;;;;;;;0.93;67.85;100091.63;5074737;28;19935;-81
2023/12/03 10:13:56;;;;;;;;;;;;;;;0.92;67.87;100089.88;5078285;28;19921;-80
2023/12/03 10:16:25;;;;;;;;;;;;;;;0.90;67.56;100101.53;5060646;28;19928;-81
2023/12/03 10:18:55;;;;;;;;;;;;;;;0.93;68.22;100091.63;5043620;28;19928;-80
2023/12/03 10:21:25;;;;;;;;;;;;;;;0.94;67.88;100098.34;5060149;28;19931;-81
2023/12/03 10:24:00;;;;;;;;;;;;;;;1.01;68.47;100100.31;5076961;28;19931;-81
2023/12/03 10:26:30;;;;;;;;;;;;;;;1.26;68.56;100089.69;5078175;28;19983;-80
2023/12/03 10:28:58;;;;;;;;;;;;;;;1.44;67.59;100092.13;5077646;28;19920;-81
2023/12/03 10:31:32;;;;;;;;;;;;;;;1.62;68.23;100093.72;5077870;28;19927;-81
2023/12/03 10:34:01;;;;;;;;;;;;;;;1.68;67.77;100093.97;5077793;28;19943;-82
2023/12/03 10:36:30;;;;;;;;;;;;;;;1.79;67.03;100096.94;5077808;28;19974;-82
2023/12/03 10:39:07;;;;;;;;;;;;;;;1.83;66.94;100103.78;5077598;28;20045;-82
2023/12/03 10:41:40;;;;;;;;;;;;;;;1.69;66.50;100109.91;5078107;28;20389;-83
2023/12/03 10:44:14;;;;;;;;;;;;;;;1.62;66.64;100108.81;5078288;28;19920;-82
2023/12/03 10:46:44;;;;;;;;;;;;;;;1.47;66.66;100112.34;5076839;28;20359;-81
2023/12/03 10:49:13;;;;;;;;;;;;;;;1.37;67.14;100117.81;5077438;28;20366;-82
2023/12/03 10:51:43;;;;;;;;;;;;;;;1.35;67.11;100120.22;5076687;28;19963;-82
2023/12/03 10:54:13;;;;;;;;;;;;;;;1.23;66.68;100118.06;5076344;28;20431;-82
2023/12/03 10:56:43;;;;;;;;;;;;;;;1.26;67.11;100125.75;5077684;28;20385;-81
2023/12/03 10:59:13;;;;;;;;;;;;;;;1.28;67.75;100131.69;5077402;28;19927;-82
2023/12/03 11:01:47;;;;;;;;;;;;;;;1.22;67.64;100128.88;5077403;28;20371;-81
2023/12/03 11:04:22;;;;;;;;;;;;;;;1.23;67.79;100119.69;5077414;28;19925;-80
2023/12/03 11:06:53;;;;;;;;;;;;;;;1.45;67.88;100129.03;5075936;28;19966;-81
2023/12/03 11:09:25;;;;;;;;;;;;;;;1.63;67.34;100127.28;5077208;28;19926;-80
2023/12/03 11:11:54;;;;;;;;;;;;;;;1.90;66.47;100130.91;5076926;28;19927;-80
2023/12/03 11:14:23;;;;;;;;;;;;;;;2.09;66.10;100128.34;5077123;28;19920;-81
2023/12/03 11:17:08;;;;;;;;;;;;;;;2.33;66.03;100131.84;5059246;28;19960;-79
2023/12/03 11:19:40;;;;;;;;;;;;;;;2.65;66.25;100133.94;5076969;28;19920;-80
2023/12/03 11:22:28;;;;;;;;;;;;;;;2.82;65.71;100133.69;5076573;28;19921;-80
2023/12/03 11:25:02;;;;;;;;;;;;;;;2.91;64.66;100137.41;5076769;28;19982;-80
2023/12/03 11:27:31;;;;;;;;;;;;;;;3.11;63.70;100125.53;5076358;28;19921;-81
2023/12/03 11:30:04;;;;;;;;;;;;;;;3.01;62.99;100124.34;5075323;28;20014;-79
2023/12/03 11:32:33;;;;;;;;;;;;;;;2.95;62.71;100128.31;5075792;28;20385;-79
2023/12/03 11:35:14;;;;;;;;;;;;;;;3.01;61.83;100134.44;5076406;28;19921;-79
2023/12/03 11:37:43;;;;;;;;;;;;;;;3.06;61.46;100127.91;5076201;28;20298;-79
2023/12/03 11:40:14;;;;;;;;;;;;;;;3.24;61.82;100127.69;5076640;28;19920;-82
2023/12/03 11:42:47;;;;;;;;;;;;;;;3.32;61.62;100129.69;5075227;28;20026;-79
2023/12/03 11:45:18;;;;;;;;;;;;;;;3.24;60.72;100123.50;5076588;28;19924;-78
2023/12/03 11:48:04;;;;;;;;;;;;;;;3.17;60.88;100123.22;5076174;28;20023;-81
2023/12/03 11:50:35;;;;;;;;;;;;;;;3.33;61.17;100128.03;5075102;28;19924;-79
2023/12/03 11:53:03;;;;;;;;;;;;;;;3.28;60.43;100134.56;5076433;28;19920;-79
2023/12/03 11:55:34;;;;;;;;;;;;;;;3.23;60.63;100136.06;5074970;28;19920;-81
2023/12/03 11:58:06;;;;;;;;;;;;;;;3.24;60.73;100140.28;5074990;28;19920;-80
2023/12/03 12:00:35;;;;;;;;;;;;;;;3.29;60.10;100141.31;5074710;28;20015;-79
2023/12/03 12:03:05;;;;;;;;;;;;;;;3.72;60.34;100149.56;5075777;28;20378;-80
2023/12/03 12:05:34;;;;;;;;;;;;;;;4.21;60.44;100156.22;5075795;28;19932;-78
2023/12/03 12:08:03;;;;;;;;;;;;;;;4.60;59.53;100158.34;5075722;28;19928;-81
2023/12/03 12:10:32;;;;;;;;;;;;;;;5.06;59.22;100149.59;5076026;28;19921;-80
2023/12/03 12:13:03;;;;;;;;;;;;;;;5.12;58.42;100145.56;5076194;28;19927;-79
2023/12/03 12:15:32;;;;;;;;;;;;;;;5.00;57.71;100145.19;5075984;28;19921;-79
2023/12/03 12:18:02;;;;;;;;;;;;;;;4.47;57.24;100145.25;5057619;28;20273;-79
2023/12/03 12:20:32;;;;;;;;;;;;;;;4.24;57.15;100147.09;5075818;28;20026;-80
2023/12/03 12:23:01;;;;;;;;;;;;;;;4.30;56.98;100146.41;5074751;28;19927;-79
2023/12/03 12:25:30;;;;;;;;;;;;;;;4.17;57.44;100159.47;5091326;28;19925;-80
2023/12/03 12:27:58;;;;;;;;;;;;;;;3.65;57.39;100162.78;5091417;28;19927;-79
2023/12/03 12:30:30;;;;;;;;;;;;;;;3.27;57.66;100163.09;5075582;28;20384;-79
2023/12/03 12:33:03;;;;;;;;;;;;;;;3.03;58.30;100167.25;5075263;28;20006;-79
2023/12/03 12:35:32;;;;;;;;;;;;;;;2.84;58.36;100170.75;5075080;28;19920;-78
2023/12/03 12:38:03;;;;;;;;;;;;;;;2.57;59.25;100170.56;5075363;28;19927;-80
2023/12/03 12:40:32;;;;;;;;;;;;;;;2.42;60.26;100172.50;5074095;28;19920;-81
2023/12/03 12:43:06;;;;;;;;;;;;;;;2.17;59.96;100174.84;5075309;28;19928;-79
2023/12/03 12:45:38;;;;;;;;;;;;;;;2.06;60.08;100176.06;5075344;28;20011;-78
2023/12/03 12:48:22;;;;;;;;;;;;;;;1.95;60.82;100169.72;5074978;28;19928;-77
2023/12/03 12:50:52;;;;;;;;;;;;;;;2.00;60.69;100178.31;5075517;28;20357;-79
2023/12/03 12:53:20;;;;;;;;;;;;;;;1.98;61.07;100180.78;5041138;28;20355;-79
2023/12/03 12:55:50;;;;;;;;;;;;;;;1.96;61.23;100173.97;5074522;28;20378;-79
2023/12/03 12:58:19;;;;;;;;;;;;;;;1.82;62.08;100175.06;5074596;28;19920;-78
2023/12/03 13:00:50;;;;;;;;;;;;;;;1.66;62.35;100180.22;5074909;28;20011;-78